createdAt,value
2022-09-09T00:01:11.432Z,16.90
2022-09-09T00:05:23.827Z,16.90
2022-09-09T00:09:44.562Z,16.90
2022-09-09T00:13:55.871Z,16.90
2022-09-09T00:18:15.182Z,16.80
2022-09-09T00:22:27.344Z,16.80
2022-09-09T00:26:41.752Z,16.70
2022-09-09T00:30:50.492Z,16.70
2022-09-09T00:35:06.307Z,16.60
2022-09-09T00:39:34.865Z,16.40
2022-09-09T00:43:44.766Z,16.40
2022-09-09T00:47:55.060Z,16.40
2022-09-09T00:52:19.404Z,16.40
2022-09-09T00:56:57.902Z,16.50
2022-09-09T01:01:09.686Z,16.50
2022-09-09T01:05:30.624Z,16.40
2022-09-09T01:09:52.363Z,16.40
2022-09-09T01:14:31.691Z,16.30
2022-09-09T01:18:46.259Z,16.20
2022-09-09T01:23:23.356Z,16.20
2022-09-09T01:27:32.464Z,16.20
2022-09-09T01:31:44.150Z,16.20
2022-09-09T01:36:17.100Z,16.20
2022-09-09T01:40:27.182Z,16.10
2022-09-09T01:44:37.476Z,16.10
2022-09-09T01:48:47.191Z,16.10
2022-09-09T01:53:00.809Z,16.00
2022-09-09T01:57:18.568Z,16.00
2022-09-09T02:01:37.316Z,16.00
2022-09-09T02:05:55.180Z,16.00
2022-09-09T02:10:25.042Z,15.90
2022-09-09T02:14:36.694Z,15.80
2022-09-09T02:18:48.408Z,15.80
2022-09-09T02:23:18.077Z,15.80
2022-09-09T02:27:27.589Z,15.80
2022-09-09T02:31:38.496Z,15.80
2022-09-09T02:35:48.507Z,15.80
2022-09-09T02:39:57.758Z,15.90
2022-09-09T02:44:20.426Z,15.90
2022-09-09T02:48:32.158Z,15.90
2022-09-09T02:52:55.822Z,15.90
2022-09-09T02:57:28.885Z,15.80
2022-09-09T03:01:38.611Z,15.80
2022-09-09T03:06:06.686Z,15.80
2022-09-09T03:10:15.584Z,15.80
2022-09-09T03:14:27.028Z,15.80
2022-09-09T03:18:35.774Z,15.80
2022-09-09T03:22:46.082Z,15.90
2022-09-09T03:26:56.226Z,15.90
2022-09-09T03:31:07.050Z,15.90
2022-09-09T03:35:16.854Z,15.90
2022-09-09T03:39:25.509Z,15.90
2022-09-09T03:43:34.345Z,15.80
2022-09-09T03:47:43.127Z,15.80
2022-09-09T03:51:51.654Z,15.80
2022-09-09T03:56:00.839Z,15.80
2022-09-09T04:00:11.110Z,15.80
2022-09-09T04:04:21.070Z,15.90
2022-09-09T04:08:31.030Z,15.90
2022-09-09T04:12:39.663Z,15.90
2022-09-09T04:16:48.558Z,16.00
2022-09-09T04:20:58.350Z,16.00
2022-09-09T04:25:08.181Z,16.00
2022-09-09T04:29:16.836Z,16.00
2022-09-09T04:33:29.049Z,16.00
2022-09-09T04:37:37.680Z,16.00
2022-09-09T04:41:46.307Z,16.00
2022-09-09T04:45:55.520Z,16.00
2022-09-09T04:50:04.201Z,16.10
2022-09-09T04:54:12.767Z,16.10
2022-09-09T04:58:23.014Z,16.00
2022-09-09T05:02:32.044Z,16.00
2022-09-09T05:06:41.052Z,16.00
2022-09-09T05:10:49.986Z,16.00
2022-09-09T05:14:58.819Z,16.00
2022-09-09T05:19:10.219Z,16.00
2022-09-09T05:23:19.150Z,16.00
2022-09-09T05:27:27.880Z,16.00
2022-09-09T05:31:36.434Z,16.10
2022-09-09T05:35:45.138Z,16.10
2022-09-09T05:39:54.360Z,16.10
2022-09-09T05:44:04.505Z,16.10
2022-09-09T05:48:13.143Z,16.20
2022-09-09T05:52:21.803Z,16.20
2022-09-09T05:56:31.217Z,16.20
2022-09-09T06:00:39.754Z,16.20
2022-09-09T06:04:49.374Z,16.20
2022-09-09T06:09:17.272Z,16.30
2022-09-09T06:13:26.046Z,16.30
2022-09-09T06:17:34.671Z,16.30
2022-09-09T06:21:44.941Z,16.30
2022-09-09T06:25:55.308Z,16.30
2022-09-09T06:30:04.860Z,16.40
2022-09-09T06:34:13.897Z,16.40
2022-09-09T06:38:23.126Z,16.40
2022-09-09T06:42:32.612Z,16.40
2022-09-09T06:46:41.339Z,16.40
2022-09-09T06:50:50.783Z,16.40
2022-09-09T06:54:59.685Z,16.50
2022-09-09T06:59:10.280Z,16.60
2022-09-09T07:03:18.907Z,16.70
2022-09-09T07:07:28.261Z,16.80
2022-09-09T07:11:43.730Z,16.90
2022-09-09T07:15:52.533Z,16.90
2022-09-09T07:20:01.104Z,17.00
2022-09-09T07:24:11.021Z,17.00
2022-09-09T07:28:19.795Z,17.10
2022-09-09T07:32:28.526Z,17.20
2022-09-09T07:36:40.181Z,17.30
2022-09-09T07:40:49.673Z,17.40
2022-09-09T07:44:58.239Z,17.40
2022-09-09T07:49:07.751Z,17.40
2022-09-09T07:53:16.863Z,17.60
2022-09-09T07:57:25.929Z,17.60
2022-09-09T08:01:39.525Z,17.60
2022-09-09T08:05:48.103Z,17.70
2022-09-09T08:09:57.073Z,17.80
2022-09-09T08:14:07.043Z,17.90
2022-09-09T08:18:15.733Z,17.90
2022-09-09T08:22:25.596Z,17.90
2022-09-09T08:26:36.835Z,18.00
2022-09-09T08:30:45.983Z,18.10
2022-09-09T08:34:55.172Z,18.20
2022-09-09T08:39:06.768Z,18.50
2022-09-09T08:43:17.618Z,18.80
2022-09-09T08:48:00.640Z,18.90
2022-09-09T08:52:30.297Z,18.90
2022-09-09T08:56:58.219Z,19.00
2022-09-09T09:01:33.878Z,19.00
2022-09-09T09:06:03.472Z,19.10
2022-09-09T09:10:43.295Z,19.10
2022-09-09T09:14:52.057Z,19.00
2022-09-09T09:19:02.013Z,18.90
2022-09-09T09:23:13.714Z,18.80
2022-09-09T09:27:25.415Z,18.70
2022-09-09T09:31:34.046Z,18.60
2022-09-09T09:35:44.381Z,18.70
2022-09-09T09:44:23.996Z,18.70
2022-09-09T09:48:33.416Z,18.80
2022-09-09T09:52:43.711Z,19.00
2022-09-09T09:56:52.503Z,19.20
2022-09-09T10:01:01.890Z,19.60
2022-09-09T10:05:26.294Z,19.80
2022-09-09T10:09:35.234Z,20.00
2022-09-09T10:13:59.519Z,20.20
2022-09-09T10:18:26.536Z,20.20
2022-09-09T10:22:36.133Z,20.10
2022-09-09T10:27:14.745Z,20.00
2022-09-09T10:31:29.826Z,19.80
2022-09-09T10:35:56.393Z,19.60
2022-09-09T10:40:17.991Z,19.40
2022-09-09T10:44:51.026Z,19.30
2022-09-09T10:49:31.953Z,19.30
2022-09-09T10:54:02.453Z,19.30
2022-09-09T10:58:14.051Z,19.30
2022-09-09T11:02:43.934Z,19.50
2022-09-09T11:06:55.691Z,19.60
2022-09-09T11:11:13.307Z,19.70
2022-09-09T11:15:24.914Z,19.60
2022-09-09T11:19:39.693Z,19.50
2022-09-09T11:24:00.353Z,19.40
2022-09-09T11:28:18.045Z,19.40
2022-09-09T11:33:04.459Z,19.60
2022-09-09T11:37:36.377Z,19.70
2022-09-09T11:41:46.308Z,19.70
2022-09-09T11:46:01.641Z,19.70
2022-09-09T11:50:19.629Z,19.70
2022-09-09T11:54:33.992Z,19.90
2022-09-09T11:59:06.481Z,20.10
2022-09-09T12:03:38.167Z,20.30
2022-09-09T12:08:04.642Z,20.30
2022-09-09T12:12:19.984Z,20.10
2022-09-09T12:16:40.103Z,20.30
2022-09-09T12:20:54.546Z,20.30
2022-09-09T12:25:22.602Z,20.30
2022-09-09T12:29:39.928Z,20.20
2022-09-09T12:33:49.114Z,20.00
2022-09-09T12:38:03.640Z,19.70
2022-09-09T12:42:21.104Z,19.40
2022-09-09T12:46:33.115Z,19.30
2022-09-09T12:50:47.327Z,19.20
2022-09-09T12:54:56.620Z,19.10
2022-09-09T12:59:05.248Z,19.10
2022-09-09T13:03:23.316Z,19.40
2022-09-09T13:07:32.136Z,19.70
2022-09-09T13:11:43.730Z,20.00
2022-09-09T13:15:57.950Z,20.10
2022-09-09T13:20:07.259Z,19.90
2022-09-09T13:24:36.042Z,19.60
2022-09-09T13:28:46.396Z,19.60
2022-09-09T13:33:06.301Z,19.60
2022-09-09T13:37:18.561Z,19.80
2022-09-09T13:41:33.228Z,20.00
2022-09-09T13:45:41.976Z,20.20
2022-09-09T13:49:50.747Z,20.40
2022-09-09T13:54:01.014Z,20.50
2022-09-09T13:58:12.714Z,20.50
2022-09-09T14:02:22.479Z,20.60
2022-09-09T14:06:33.255Z,20.40
2022-09-09T14:11:02.259Z,20.20
2022-09-09T14:15:13.547Z,20.10
2022-09-09T14:19:22.176Z,19.90
2022-09-09T14:23:50.056Z,19.40
2022-09-09T14:27:58.606Z,19.00
2022-09-09T14:32:11.952Z,18.70
2022-09-09T14:36:17.954Z,18.20
2022-09-09T14:40:27.367Z,17.90
2022-09-09T14:44:37.229Z,17.70
2022-09-09T14:48:47.807Z,17.50
2022-09-09T14:52:56.499Z,17.40
2022-09-09T14:57:05.131Z,17.40
2022-09-09T15:01:16.739Z,17.40
2022-09-09T15:05:25.868Z,17.40
2022-09-09T15:09:34.496Z,17.40
2022-09-09T15:13:44.636Z,17.40
2022-09-09T15:17:53.290Z,17.50
2022-09-09T15:22:21.170Z,17.70
2022-09-09T15:26:31.133Z,17.70
2022-09-09T15:30:39.803Z,17.70
2022-09-09T15:34:48.417Z,18.00
2022-09-09T15:38:57.631Z,18.30
2022-09-09T15:43:07.706Z,18.40
2022-09-09T15:47:16.424Z,18.50
2022-09-09T15:51:43.524Z,18.60
2022-09-09T15:55:36.958Z,18.70
2022-09-09T15:59:46.106Z,18.60
2022-09-09T16:03:54.923Z,18.60
2022-09-09T16:08:04.279Z,18.50
2022-09-09T16:12:13.977Z,18.40
2022-09-09T16:16:25.160Z,18.50
2022-09-09T16:20:33.750Z,18.50
2022-09-09T16:24:42.380Z,18.50
2022-09-09T16:28:51.519Z,18.40
2022-09-09T16:33:00.082Z,18.40
2022-09-09T16:37:08.627Z,18.40
2022-09-09T16:41:17.199Z,18.30
2022-09-09T16:45:26.493Z,18.30
2022-09-09T16:49:35.130Z,18.30
2022-09-09T16:53:44.326Z,18.20
2022-09-09T16:58:05.573Z,18.20
2022-09-09T17:02:14.255Z,18.20
2022-09-09T17:06:25.154Z,18.10
2022-09-09T17:10:53.548Z,18.10
2022-09-09T17:15:03.987Z,18.10
2022-09-09T17:19:13.295Z,18.00
2022-09-09T17:23:21.851Z,18.00
2022-09-09T17:27:32.489Z,18.00
2022-09-09T17:32:00.345Z,17.90
2022-09-09T17:36:15.131Z,17.90
2022-09-09T17:40:24.224Z,17.70
2022-09-09T17:44:33.313Z,17.70
2022-09-09T17:48:43.791Z,17.70
2022-09-09T17:52:52.500Z,17.60
2022-09-09T17:57:01.129Z,17.60
2022-09-09T18:01:12.849Z,17.60
2022-09-09T18:05:22.343Z,17.60
2022-09-09T18:09:31.918Z,17.60
2022-09-09T18:13:40.560Z,17.50
2022-09-09T18:17:49.291Z,17.50
2022-09-09T18:22:01.766Z,17.60
2022-09-09T18:26:10.820Z,17.60
2022-09-09T18:30:20.029Z,17.60
2022-09-09T18:34:30.093Z,17.60
2022-09-09T18:38:39.039Z,17.50
2022-09-09T18:42:48.640Z,17.50
2022-09-09T18:46:57.614Z,17.50
2022-09-09T18:51:08.460Z,17.50
2022-09-09T18:55:17.024Z,17.50
2022-09-09T18:59:25.820Z,17.50
2022-09-09T19:03:36.068Z,17.50
2022-09-09T19:07:45.140Z,17.40
2022-09-09T19:11:56.485Z,17.30
2022-09-09T19:16:11.059Z,17.30
2022-09-09T19:20:21.355Z,17.30
2022-09-09T19:24:32.758Z,17.20
2022-09-09T19:28:42.591Z,17.10
2022-09-09T19:32:53.943Z,17.10
2022-09-09T19:37:02.746Z,17.10
2022-09-09T19:41:32.550Z,17.00
2022-09-09T19:45:41.289Z,16.90
2022-09-09T19:49:50.632Z,17.00
2022-09-09T19:54:03.052Z,16.90
2022-09-09T19:58:11.634Z,16.90
2022-09-09T20:02:20.315Z,16.90
2022-09-09T20:06:33.158Z,16.90
2022-09-09T20:10:41.868Z,16.90
2022-09-09T20:14:50.395Z,16.90
2022-09-09T20:19:02.241Z,17.00
2022-09-09T20:23:11.167Z,17.00
2022-09-09T20:27:19.899Z,17.00
2022-09-09T20:31:32.075Z,16.90
2022-09-09T20:35:40.693Z,16.80
2022-09-09T20:39:49.634Z,16.70
2022-09-09T20:44:01.957Z,16.70
2022-09-09T20:48:11.097Z,16.70
2022-09-09T20:52:20.552Z,16.60
2022-09-09T20:56:32.365Z,16.50
2022-09-09T21:00:41.081Z,16.50
2022-09-09T21:04:49.709Z,16.50
2022-09-09T21:08:58.500Z,16.40
2022-09-09T21:13:07.081Z,16.40
2022-09-09T21:17:15.698Z,16.40
2022-09-09T21:21:24.326Z,16.50
2022-09-09T21:25:32.853Z,16.40
2022-09-09T21:29:41.483Z,16.40
2022-09-09T21:33:50.016Z,16.40
2022-09-09T21:37:58.593Z,16.40
2022-09-09T21:42:28.069Z,16.40
2022-09-09T21:46:56.037Z,16.40
2022-09-09T21:51:07.811Z,16.30
2022-09-09T21:55:16.632Z,16.40
2022-09-09T21:59:27.801Z,16.40
2022-09-09T22:03:42.636Z,16.40
2022-09-09T22:07:53.107Z,16.50
2022-09-09T22:12:01.839Z,16.40
2022-09-09T22:16:13.718Z,16.40
2022-09-09T22:20:22.279Z,16.40
2022-09-09T22:24:30.902Z,16.40
2022-09-09T22:28:40.163Z,16.40
2022-09-09T22:32:48.771Z,16.40
2022-09-09T22:36:57.401Z,16.40
2022-09-09T22:41:07.473Z,16.40
2022-09-09T22:45:16.852Z,16.40
2022-09-09T22:49:25.601Z,16.40
2022-09-09T22:53:36.190Z,16.40
2022-09-09T22:57:44.948Z,16.30
2022-09-09T23:01:53.500Z,16.20
2022-09-09T23:06:04.335Z,16.20
2022-09-09T23:10:13.086Z,16.20
2022-09-09T23:14:22.227Z,16.20
2022-09-09T23:18:31.144Z,16.10
2022-09-09T23:22:40.695Z,16.10
2022-09-09T23:26:49.854Z,16.10
2022-09-09T23:30:58.646Z,16.10
2022-09-09T23:35:07.480Z,16.00
2022-09-09T23:39:16.383Z,16.00
2022-09-09T23:43:44.544Z,15.90
2022-09-09T23:47:53.788Z,15.90
2022-09-09T23:52:04.772Z,16.00
2022-09-09T23:56:13.399Z,15.90
